Terminal Aerodrome Forecast
Issued by NWS Billings, MT

Home | Current Version | Previous Version | Text Only | Print | Product List | Glossary On
Versions: 1 2 3 4 5 6 7 8 9 10 11 12 13 14 15 16 17 18 19 20 21 22 23 24 25 26 27 28 29 30 31 32
396
FTUS45 KBYZ 211733
TAFSHR
TAF
KSHR 211733Z 2118/2218 32008KT P6SM VCSH SCT025 BKN040
      TEMPO 2118/2121 35007KT BKN025 BKN040
     FM220300 30008KT P6SM VCSH SCT025 BKN040 OVC070=

USA.gov is the U.S. government's official web portal to all federal, state and local government web resources and services.